createdAt,value
2022-11-21T00:02:16.082Z,23.40
2022-11-21T00:04:45.674Z,23.40
2022-11-21T00:07:15.261Z,23.40
2022-11-21T00:09:44.873Z,23.40
2022-11-21T00:12:14.426Z,23.40
2022-11-21T00:14:44.001Z,23.50
2022-11-21T00:17:13.616Z,23.50
2022-11-21T00:19:43.184Z,23.50
2022-11-21T00:22:12.789Z,23.50
2022-11-21T00:24:42.334Z,23.50
2022-11-21T00:27:12.103Z,23.50
2022-11-21T00:29:41.614Z,23.60
2022-11-21T00:32:11.368Z,23.60
2022-11-21T00:34:41.922Z,23.60
2022-11-21T00:37:14.869Z,23.70
2022-11-21T00:39:44.837Z,23.70
2022-11-21T00:42:14.757Z,23.70
2022-11-21T00:44:44.651Z,23.80
2022-11-21T00:47:15.099Z,23.90
2022-11-21T00:49:45.092Z,23.90
2022-11-21T00:52:15.176Z,24.00
2022-11-21T00:54:45.087Z,24.00
2022-11-21T00:57:15.093Z,24.10
2022-11-21T00:59:45.055Z,24.10
2022-11-21T01:02:15.587Z,24.20
2022-11-21T01:04:45.607Z,24.30
2022-11-21T01:07:16.640Z,24.30
2022-11-21T01:09:46.253Z,24.40
2022-11-21T01:12:15.837Z,24.40
2022-11-21T01:14:45.400Z,24.50
2022-11-21T01:17:15.021Z,24.50
2022-11-21T01:19:44.602Z,24.60
2022-11-21T01:22:14.235Z,24.70
2022-11-21T01:24:43.767Z,24.70
2022-11-21T01:27:13.342Z,24.70
2022-11-21T01:29:42.936Z,24.70
2022-11-21T01:32:12.533Z,24.80
2022-11-21T01:34:42.469Z,24.80
2022-11-21T01:37:12.393Z,24.90
2022-11-21T01:39:42.347Z,24.90
2022-11-21T01:42:15.583Z,24.90
2022-11-21T01:44:56.100Z,24.90
2022-11-21T01:47:26.003Z,25.00
2022-11-21T01:49:58.245Z,25.00
2022-11-21T01:52:32.203Z,25.10
2022-11-21T01:55:11.780Z,25.10
2022-11-21T01:57:47.595Z,25.10
2022-11-21T02:00:28.439Z,25.20
2022-11-21T02:03:04.061Z,25.20
2022-11-21T02:05:38.224Z,25.30
2022-11-21T02:08:19.850Z,25.30
2022-11-21T02:11:28.964Z,25.30
2022-11-21T02:13:59.231Z,25.40
2022-11-21T02:16:30.184Z,25.40
2022-11-21T02:19:00.112Z,25.50
2022-11-21T02:21:55.191Z,25.50
2022-11-21T02:25:00.621Z,25.50
2022-11-21T02:27:31.167Z,25.60
2022-11-21T02:30:01.202Z,25.70
2022-11-21T02:32:51.131Z,25.70
2022-11-21T02:35:21.994Z,25.80
2022-11-21T02:38:02.442Z,25.90
2022-11-21T02:40:36.992Z,26.00
2022-11-21T02:43:20.975Z,26.10
2022-11-21T02:45:50.619Z,26.20
2022-11-21T02:48:20.245Z,26.30
2022-11-21T02:50:50.192Z,26.40
2022-11-21T02:53:21.335Z,26.40
2022-11-21T02:55:50.903Z,26.40
2022-11-21T02:58:21.281Z,26.50
2022-11-21T03:00:51.020Z,26.50
2022-11-21T03:03:20.728Z,26.60
2022-11-21T03:05:50.500Z,26.70
2022-11-21T03:08:20.417Z,26.70
2022-11-21T03:10:50.466Z,26.80
2022-11-21T03:13:20.386Z,26.80
2022-11-21T03:15:50.339Z,26.80
2022-11-21T03:18:20.148Z,26.80
2022-11-21T03:20:50.175Z,26.90
2022-11-21T03:23:20.210Z,27.00
2022-11-21T03:25:50.158Z,27.10
2022-11-21T03:28:20.063Z,27.20
2022-11-21T03:30:50.174Z,27.30
2022-11-21T03:33:20.352Z,27.40
2022-11-21T03:35:50.537Z,27.50
2022-11-21T03:38:20.113Z,27.50
2022-11-21T03:40:49.854Z,27.60
2022-11-21T03:43:19.545Z,27.60
2022-11-21T03:45:49.967Z,27.70
2022-11-21T03:48:19.496Z,27.70
2022-11-21T03:50:49.203Z,27.80
2022-11-21T03:53:18.753Z,27.80
2022-11-21T03:55:48.277Z,27.90
2022-11-21T03:58:17.793Z,27.90
2022-11-21T04:00:49.325Z,28.00
2022-11-21T04:03:18.840Z,28.00
2022-11-21T04:05:48.414Z,28.10
2022-11-21T04:08:17.987Z,28.10
2022-11-21T04:10:52.443Z,28.20
2022-11-21T04:13:22.431Z,28.30
2022-11-21T04:15:52.030Z,28.30
2022-11-21T04:18:21.766Z,28.40
2022-11-21T04:20:51.369Z,28.40
2022-11-21T04:23:20.962Z,28.50
2022-11-21T04:25:50.553Z,28.50
2022-11-21T04:28:20.685Z,28.60
2022-11-21T04:30:52.488Z,28.70
2022-11-21T04:33:24.872Z,28.70
2022-11-21T04:35:54.727Z,28.80
2022-11-21T04:38:24.283Z,28.90
2022-11-21T04:40:53.799Z,28.90
2022-11-21T04:43:23.354Z,29.00
2022-11-21T04:45:52.917Z,29.10
2022-11-21T04:48:22.584Z,29.10
2022-11-21T04:50:53.312Z,29.20
2022-11-21T04:53:22.899Z,29.20
2022-11-21T04:55:52.502Z,29.30
2022-11-21T04:58:22.133Z,29.30
2022-11-21T05:00:51.763Z,29.40
2022-11-21T05:03:21.288Z,29.50
2022-11-21T05:05:51.177Z,29.60
2022-11-21T05:08:20.612Z,29.60
2022-11-21T05:11:10.010Z,29.60
2022-11-21T05:13:39.535Z,29.60
2022-11-21T05:16:09.151Z,29.70
2022-11-21T05:18:38.752Z,29.70
2022-11-21T05:21:08.247Z,29.80
2022-11-21T05:23:37.791Z,29.80
2022-11-21T05:26:08.193Z,29.90
2022-11-21T05:28:37.854Z,29.90
2022-11-21T05:31:07.378Z,30.00
2022-11-21T05:33:37.646Z,30.00
2022-11-21T05:36:07.620Z,30.00
2022-11-21T05:38:37.172Z,30.10
2022-11-21T05:41:06.717Z,30.10
2022-11-21T05:43:55.896Z,30.20
2022-11-21T05:46:27.626Z,30.20
2022-11-21T05:48:57.783Z,30.30
2022-11-21T05:51:27.414Z,30.40
2022-11-21T05:53:56.890Z,30.40
2022-11-21T05:56:29.662Z,30.50
2022-11-21T05:59:00.537Z,30.50
2022-11-21T06:01:49.733Z,30.60
2022-11-21T06:04:19.379Z,30.60
2022-11-21T06:06:48.921Z,30.60
2022-11-21T06:09:18.497Z,30.70
2022-11-21T06:11:48.146Z,30.70
2022-11-21T06:14:17.694Z,30.70
2022-11-21T06:16:47.254Z,30.70
2022-11-21T06:19:16.860Z,30.70
2022-11-21T06:21:46.390Z,30.70
2022-11-21T06:24:20.720Z,30.70
2022-11-21T06:26:51.645Z,30.70
2022-11-21T06:29:23.858Z,30.80
2022-11-21T06:31:53.484Z,30.80
2022-11-21T06:34:24.149Z,30.80
2022-11-21T06:36:54.385Z,30.90
2022-11-21T06:39:24.322Z,30.90
2022-11-21T06:41:54.271Z,30.90
2022-11-21T06:44:24.192Z,30.90
2022-11-21T06:46:54.115Z,30.90
2022-11-21T06:49:24.020Z,31.00
2022-11-21T06:51:54.225Z,30.90
2022-11-21T06:54:24.191Z,31.00
2022-11-21T06:56:57.159Z,31.10
2022-11-21T06:59:27.057Z,31.10
2022-11-21T07:01:56.986Z,31.10
2022-11-21T07:04:27.261Z,31.10
2022-11-21T07:06:57.512Z,31.20
2022-11-21T07:09:34.433Z,31.20
2022-11-21T07:12:24.512Z,31.20
2022-11-21T07:14:54.393Z,31.20
2022-11-21T07:17:24.230Z,31.30
2022-11-21T07:19:54.156Z,31.20
2022-11-21T07:22:24.129Z,31.20
2022-11-21T07:24:53.930Z,31.30
2022-11-21T07:27:23.857Z,31.30
2022-11-21T07:29:53.978Z,31.30
2022-11-21T07:32:24.279Z,31.30
2022-11-21T07:34:53.863Z,31.30
2022-11-21T07:37:23.455Z,31.30
2022-11-21T07:39:52.967Z,31.30
2022-11-21T07:42:22.529Z,31.30
2022-11-21T07:44:52.105Z,31.40
2022-11-21T07:47:21.671Z,31.40
2022-11-21T07:49:51.246Z,31.40
2022-11-21T07:52:20.826Z,31.40
2022-11-21T07:54:50.386Z,31.40
2022-11-21T07:57:20.035Z,31.40
2022-11-21T07:59:49.608Z,31.40
2022-11-21T08:02:25.775Z,31.40
2022-11-21T08:04:55.998Z,31.30
2022-11-21T08:07:26.538Z,31.30
2022-11-21T08:09:56.081Z,31.20
2022-11-21T08:12:25.651Z,31.30
2022-11-21T08:14:55.215Z,31.30
2022-11-21T08:17:24.773Z,31.30
2022-11-21T08:19:54.509Z,31.30
2022-11-21T08:22:24.083Z,31.30
2022-11-21T08:24:55.465Z,31.40
2022-11-21T08:27:26.154Z,31.40
2022-11-21T08:29:55.731Z,31.50
2022-11-21T08:32:26.651Z,31.50
2022-11-21T08:34:56.555Z,31.50
2022-11-21T08:37:26.494Z,31.50
2022-11-21T08:39:56.412Z,31.50
2022-11-21T08:42:26.439Z,31.50
2022-11-21T08:44:56.354Z,31.50
2022-11-21T08:47:26.279Z,31.50
2022-11-21T08:49:56.129Z,31.60
2022-11-21T08:52:26.054Z,31.70
2022-11-21T08:54:55.945Z,31.70
2022-11-21T08:57:25.927Z,31.70
2022-11-21T08:59:55.787Z,31.70
2022-11-21T09:02:25.692Z,31.70
2022-11-21T09:04:55.555Z,31.70
2022-11-21T09:07:25.582Z,31.60
2022-11-21T09:09:55.466Z,31.50
2022-11-21T09:12:25.363Z,31.50
2022-11-21T09:15:14.772Z,31.40
2022-11-21T09:18:04.305Z,31.30
2022-11-21T09:20:38.495Z,31.20
2022-11-21T09:23:10.096Z,31.10
2022-11-21T09:25:40.139Z,31.10
2022-11-21T09:28:12.566Z,31.00
2022-11-21T09:30:43.630Z,31.00
2022-11-21T09:33:16.054Z,30.90
2022-11-21T09:35:46.041Z,30.90
2022-11-21T09:38:18.614Z,30.90
2022-11-21T09:40:52.463Z,30.80
2022-11-21T09:43:56.764Z,30.80
2022-11-21T09:46:30.271Z,30.80
2022-11-21T09:49:06.529Z,30.80
2022-11-21T09:51:41.948Z,30.80
2022-11-21T09:54:21.311Z,30.80
2022-11-21T09:56:54.231Z,30.80
2022-11-21T09:59:40.452Z,30.80
2022-11-21T10:02:23.427Z,30.80
2022-11-21T10:04:54.317Z,30.80
2022-11-21T10:07:28.931Z,30.80
2022-11-21T10:10:26.701Z,30.80
2022-11-21T10:13:30.628Z,30.80
2022-11-21T10:16:22.985Z,30.70
2022-11-21T10:19:18.816Z,30.70
2022-11-21T10:22:27.508Z,30.60
2022-11-21T10:25:16.786Z,30.60
2022-11-21T10:28:02.763Z,30.50
2022-11-21T10:30:32.508Z,30.40
2022-11-21T10:33:06.338Z,30.30
2022-11-21T10:35:51.176Z,30.20
2022-11-21T10:38:30.803Z,30.10
2022-11-21T10:41:23.781Z,30.00
2022-11-21T10:44:34.698Z,29.90
2022-11-21T10:47:04.881Z,29.80
2022-11-21T10:49:36.438Z,29.70
2022-11-21T10:52:16.001Z,29.60
2022-11-21T10:55:10.437Z,29.50
2022-11-21T10:57:51.355Z,29.30
2022-11-21T11:00:28.185Z,29.20
2022-11-21T11:03:08.468Z,29.10
2022-11-21T11:05:43.179Z,29.00
2022-11-21T11:08:15.073Z,29.00
2022-11-21T11:11:02.296Z,28.90
2022-11-21T11:13:51.371Z,28.80
2022-11-21T11:16:23.220Z,28.70
2022-11-21T11:19:10.336Z,28.60
2022-11-21T11:21:49.612Z,28.50
2022-11-21T11:24:29.439Z,28.50
2022-11-21T11:27:04.859Z,28.40
2022-11-21T11:29:43.295Z,28.40
2022-11-21T11:32:21.940Z,28.30
2022-11-21T11:35:26.001Z,28.20
2022-11-21T11:38:07.857Z,28.10
2022-11-21T11:40:45.259Z,28.00
2022-11-21T11:44:05.067Z,28.00
2022-11-21T11:47:26.842Z,27.90
2022-11-21T11:50:13.210Z,27.80
2022-11-21T11:53:21.943Z,27.70
2022-11-21T11:56:02.954Z,27.60
2022-11-21T11:59:02.204Z,27.50
2022-11-21T12:01:50.842Z,27.50
2022-11-21T12:04:23.531Z,27.40
2022-11-21T12:11:09.386Z,27.30
2022-11-21T12:13:39.361Z,27.20
2022-11-21T12:16:14.731Z,27.10
2022-11-21T12:18:58.454Z,27.10
2022-11-21T12:21:28.513Z,27.00
2022-11-21T12:24:00.292Z,27.00
2022-11-21T12:27:01.402Z,26.90
2022-11-21T12:29:58.273Z,26.90
2022-11-21T12:33:08.473Z,26.90
2022-11-21T12:36:17.259Z,26.80
2022-11-21T12:39:20.132Z,26.80
2022-11-21T12:42:20.663Z,26.80
2022-11-21T12:45:21.373Z,26.70
2022-11-21T12:48:38.720Z,26.70
2022-11-21T12:51:38.014Z,26.60
2022-11-21T12:54:40.332Z,26.60
2022-11-21T12:57:19.717Z,26.50
2022-11-21T13:00:20.534Z,26.50
2022-11-21T13:03:25.015Z,26.40
2022-11-21T13:05:59.214Z,26.30
2022-11-21T13:08:33.115Z,26.30
2022-11-21T13:12:01.512Z,26.20
2022-11-21T13:15:03.830Z,26.10
2022-11-21T13:17:52.198Z,26.10
2022-11-21T13:20:42.308Z,26.10
2022-11-21T13:23:52.224Z,26.00
2022-11-21T13:26:49.910Z,26.00
2022-11-21T13:29:19.203Z,26.00
2022-11-21T13:31:49.803Z,26.00
2022-11-21T13:34:41.159Z,25.90
2022-11-21T13:37:11.581Z,25.90
2022-11-21T13:39:41.561Z,25.90
2022-11-21T13:42:32.643Z,25.80
2022-11-21T13:45:42.281Z,25.80
2022-11-21T13:48:51.063Z,25.70
2022-11-21T13:51:59.926Z,25.70
2022-11-21T13:54:56.689Z,25.60
2022-11-21T13:57:59.835Z,25.60
2022-11-21T14:00:58.520Z,25.50
2022-11-21T14:04:07.308Z,25.50
2022-11-21T14:06:45.103Z,25.50
2022-11-21T14:09:26.909Z,25.30
2022-11-21T14:12:01.584Z,25.30
2022-11-21T14:14:52.675Z,25.30
2022-11-21T14:17:58.703Z,25.20
2022-11-21T14:20:33.678Z,25.20
2022-11-21T14:23:18.085Z,25.20
2022-11-21T14:25:53.080Z,25.20
2022-11-21T14:28:42.362Z,25.20
2022-11-21T14:31:17.303Z,25.20
2022-11-21T14:33:50.951Z,25.10
2022-11-21T14:36:31.555Z,25.10
2022-11-21T14:39:35.228Z,25.10
2022-11-21T14:41:59.971Z,25.00
2022-11-21T14:44:30.098Z,25.00
2022-11-21T14:47:25.890Z,24.90
2022-11-21T14:50:03.787Z,24.90
2022-11-21T14:52:37.003Z,24.80
2022-11-21T14:55:30.159Z,24.80
2022-11-21T14:58:02.568Z,24.80
2022-11-21T15:01:02.566Z,24.80
2022-11-21T15:03:25.427Z,24.70
2022-11-21T15:06:08.614Z,24.70
2022-11-21T15:11:42.643Z,24.70
2022-11-21T15:14:27.612Z,24.70
2022-11-21T15:16:59.661Z,24.60
2022-11-21T15:19:31.005Z,24.60
2022-11-21T15:22:04.421Z,24.60
2022-11-21T15:24:44.768Z,24.50
2022-11-21T15:27:35.160Z,24.50
2022-11-21T15:30:23.776Z,24.50
2022-11-21T15:33:22.841Z,24.50
2022-11-21T15:35:59.857Z,24.50
2022-11-21T15:38:55.182Z,24.50
2022-11-21T15:41:28.705Z,24.40
2022-11-21T15:44:22.362Z,24.40
2022-11-21T15:46:54.268Z,24.40
2022-11-21T15:49:32.795Z,24.40
2022-11-21T15:52:07.246Z,24.30
2022-11-21T15:54:38.536Z,24.30
2022-11-21T15:57:08.086Z,24.30
2022-11-21T15:59:37.730Z,24.30
2022-11-21T16:02:07.330Z,24.30
2022-11-21T16:04:36.936Z,24.30
2022-11-21T16:07:06.627Z,24.30
2022-11-21T16:09:37.741Z,24.30
2022-11-21T16:12:07.604Z,24.20
2022-11-21T16:14:37.391Z,24.20
2022-11-21T16:17:07.258Z,24.20
2022-11-21T16:19:37.115Z,24.20
2022-11-21T16:22:07.042Z,24.20
2022-11-21T16:24:36.899Z,24.10
2022-11-21T16:27:06.800Z,24.10
2022-11-21T16:29:37.035Z,24.10
2022-11-21T16:32:07.016Z,24.10
2022-11-21T16:34:36.847Z,24.10
2022-11-21T16:37:07.707Z,24.10
2022-11-21T16:39:37.869Z,24.10
2022-11-21T16:42:11.772Z,24.10
2022-11-21T16:44:44.754Z,24.10
2022-11-21T16:47:16.020Z,24.00
2022-11-21T16:49:48.767Z,24.00
2022-11-21T16:52:19.784Z,24.00
2022-11-21T16:54:49.411Z,24.00
2022-11-21T16:57:19.062Z,24.00
2022-11-21T16:59:48.604Z,24.00
2022-11-21T17:02:18.566Z,23.90
2022-11-21T17:04:48.461Z,23.90
2022-11-21T17:07:18.355Z,23.90
2022-11-21T17:09:48.278Z,23.90
2022-11-21T17:12:18.170Z,23.90
2022-11-21T17:14:49.992Z,23.80
2022-11-21T17:17:20.622Z,23.90
2022-11-21T17:19:50.603Z,23.80
2022-11-21T17:22:24.783Z,23.80
2022-11-21T17:24:55.455Z,23.80
2022-11-21T17:27:26.187Z,23.80
2022-11-21T17:29:56.178Z,23.70
2022-11-21T17:32:26.177Z,23.70
2022-11-21T17:34:56.055Z,23.70
2022-11-21T17:37:26.520Z,23.70
2022-11-21T17:39:56.384Z,23.60
2022-11-21T17:42:28.525Z,23.60
2022-11-21T17:44:58.458Z,23.60
2022-11-21T17:47:28.280Z,23.60
2022-11-21T17:50:02.582Z,23.50
2022-11-21T17:52:35.381Z,23.50
2022-11-21T17:55:05.365Z,23.50
2022-11-21T17:57:35.261Z,23.50
2022-11-21T18:00:06.187Z,23.50
2022-11-21T18:02:36.246Z,23.50
2022-11-21T18:05:06.616Z,23.40
2022-11-21T18:07:37.369Z,23.40
2022-11-21T18:10:35.069Z,23.40
2022-11-21T18:12:57.447Z,23.40
2022-11-21T18:15:27.268Z,23.40
2022-11-21T18:17:57.147Z,23.40
2022-11-21T18:20:27.062Z,23.30
2022-11-21T18:22:57.009Z,23.30
2022-11-21T18:25:26.833Z,23.30
2022-11-21T18:27:56.732Z,23.30
2022-11-21T18:30:26.290Z,23.30
2022-11-21T18:32:55.854Z,23.30
2022-11-21T18:35:25.528Z,23.30
2022-11-21T18:37:55.588Z,23.30
2022-11-21T18:40:25.127Z,23.20
2022-11-21T18:42:54.752Z,23.20
2022-11-21T18:45:24.301Z,23.20
2022-11-21T18:47:53.852Z,23.20
2022-11-21T18:50:23.365Z,23.20
2022-11-21T18:52:53.549Z,23.20
2022-11-21T18:55:24.723Z,23.10
2022-11-21T18:57:54.449Z,23.20
2022-11-21T19:00:24.149Z,23.10
2022-11-21T19:02:54.018Z,23.10
2022-11-21T19:05:23.949Z,23.10
2022-11-21T19:07:55.171Z,23.10
2022-11-21T19:13:15.166Z,23.10
2022-11-21T19:15:44.992Z,23.00
2022-11-21T19:18:15.073Z,23.00
2022-11-21T19:20:44.700Z,23.00
2022-11-21T19:23:14.299Z,23.00
2022-11-21T19:25:43.819Z,23.00
2022-11-21T19:28:13.580Z,22.90
2022-11-21T19:30:43.161Z,22.90
2022-11-21T19:33:12.737Z,22.90
2022-11-21T19:35:42.573Z,22.90
2022-11-21T19:38:12.134Z,22.90
2022-11-21T19:41:01.487Z,22.90
2022-11-21T19:43:32.369Z,22.90
2022-11-21T19:46:05.849Z,22.80
2022-11-21T19:48:35.721Z,22.80
2022-11-21T19:51:09.300Z,22.80
2022-11-21T19:53:40.906Z,22.80
2022-11-21T19:56:28.263Z,22.80
2022-11-21T19:58:58.820Z,22.80
2022-11-21T20:01:30.541Z,22.80
2022-11-21T20:04:03.076Z,22.80
2022-11-21T20:06:38.682Z,22.80
2022-11-21T20:09:20.607Z,22.80
2022-11-21T20:11:53.693Z,22.70
2022-11-21T20:14:23.415Z,22.70
2022-11-21T20:16:54.712Z,22.70
2022-11-21T20:19:26.362Z,22.70
2022-11-21T20:21:56.026Z,22.70
2022-11-21T20:24:25.606Z,22.70
2022-11-21T20:26:55.524Z,22.70
2022-11-21T20:29:25.104Z,22.70
2022-11-21T20:31:55.914Z,22.60
2022-11-21T20:34:25.672Z,22.60
2022-11-21T20:36:55.900Z,22.60
2022-11-21T20:39:27.462Z,22.60
2022-11-21T20:41:57.473Z,22.60
2022-11-21T20:45:11.689Z,22.60
2022-11-21T20:47:18.384Z,22.60
2022-11-21T20:49:47.944Z,22.60
2022-11-21T20:55:08.014Z,22.60
2022-11-21T20:57:37.571Z,22.50
2022-11-21T21:00:07.955Z,22.50
2022-11-21T21:02:37.494Z,22.50
2022-11-21T21:05:08.028Z,22.50
2022-11-21T21:07:37.690Z,22.50
2022-11-21T21:10:08.029Z,22.40
2022-11-21T21:12:37.577Z,22.40
2022-11-21T21:15:07.513Z,22.30
2022-11-21T21:17:38.148Z,22.20
2022-11-21T21:20:08.420Z,22.20
2022-11-21T21:22:39.005Z,22.10
2022-11-21T21:25:08.969Z,22.10
2022-11-21T21:27:38.566Z,22.10
2022-11-21T21:30:08.804Z,22.10
2022-11-21T21:32:38.406Z,22.10
2022-11-21T21:35:08.441Z,22.10
2022-11-21T21:37:38.912Z,22.10
2022-11-21T21:40:09.605Z,22.10
2022-11-21T21:42:39.462Z,22.10
2022-11-21T21:45:09.898Z,22.10
2022-11-21T21:47:39.889Z,22.10
2022-11-21T21:50:15.636Z,22.10
2022-11-21T21:52:46.008Z,22.10
2022-11-21T21:55:15.883Z,22.10
2022-11-21T21:57:51.117Z,22.10
2022-11-21T22:00:22.284Z,22.10
2022-11-21T22:02:52.127Z,22.10
2022-11-21T22:05:22.001Z,22.10
2022-11-21T22:07:51.649Z,22.10
2022-11-21T22:10:21.346Z,22.10
2022-11-21T22:12:50.873Z,22.10
2022-11-21T22:15:20.411Z,22.00
2022-11-21T22:17:50.037Z,22.00
2022-11-21T22:20:19.702Z,22.00
2022-11-21T22:22:49.331Z,22.00
2022-11-21T22:25:18.925Z,22.00
2022-11-21T22:27:48.503Z,22.00
2022-11-21T22:30:18.387Z,22.00
2022-11-21T22:32:48.020Z,22.00
2022-11-21T22:35:17.883Z,22.00
2022-11-21T22:37:51.091Z,22.00
2022-11-21T22:40:20.950Z,22.00
2022-11-21T22:42:50.865Z,22.00
2022-11-21T22:45:20.919Z,22.00
2022-11-21T22:47:51.086Z,22.00
2022-11-21T22:50:21.049Z,22.00
2022-11-21T22:52:50.960Z,22.00
2022-11-21T22:55:20.886Z,22.00
2022-11-21T22:57:50.775Z,22.00
2022-11-21T23:00:21.131Z,22.00
2022-11-21T23:02:51.068Z,21.90
2022-11-21T23:05:21.663Z,22.00
2022-11-21T23:07:51.625Z,22.00
2022-11-21T23:10:21.342Z,22.00
2022-11-21T23:12:50.900Z,21.90
2022-11-21T23:15:20.394Z,21.90
2022-11-21T23:17:53.816Z,21.90
2022-11-21T23:20:23.497Z,21.90
2022-11-21T23:22:53.001Z,21.90
2022-11-21T23:25:22.703Z,21.90
2022-11-21T23:27:52.515Z,21.90
2022-11-21T23:30:22.078Z,21.80
2022-11-21T23:32:51.674Z,21.80
2022-11-21T23:35:21.791Z,21.70
2022-11-21T23:37:51.791Z,21.60
2022-11-21T23:40:21.771Z,21.60
2022-11-21T23:42:51.658Z,21.60
2022-11-21T23:45:21.570Z,21.60
2022-11-21T23:47:51.626Z,21.60
2022-11-21T23:50:22.836Z,21.60
2022-11-21T23:52:52.851Z,21.70
2022-11-21T23:55:22.701Z,21.60
2022-11-21T23:57:53.216Z,21.70
